Time;durP1;ratioP1;P1;durP2;ratioP2;P2;SDS_P1;SDS_P2;PMS_P1;PMS_P2;Temp;Humidity;BMP_temperature;BMP_pressure;BME280_temperature;BME280_humidity;BME280_pressure;Samples;Min_cycle;Max_cycle;Signal;HPM_P1;HPM_P2
2022/04/01 00:02:25;;;;;;;5.65;1.70;;;;;;;3.27;100.00;101625.75;5086185;28;20049;-87
2022/04/01 00:04:52;;;;;;;8.63;1.60;;;;;;;3.35;100.00;101623.22;5072357;28;20088;-87
2022/04/01 00:07:19;;;;;;;5.18;1.60;;;;;;;3.00;100.00;101590.19;5071922;28;20049;-86
2022/04/01 00:09:46;;;;;;;4.63;1.80;;;;;;;3.17;100.00;101577.34;5091700;28;20143;-86
2022/04/01 00:12:13;;;;;;;6.05;1.92;;;;;;;3.38;100.00;101616.34;5075443;28;20051;-86
2022/04/01 00:14:39;;;;;;;6.43;2.03;;;;;;;3.13;100.00;101560.09;5067914;28;20479;-87
2022/04/01 00:17:07;;;;;;;7.65;1.88;;;;;;;3.72;100.00;101632.06;5050335;28;20049;-87
2022/04/01 00:19:34;;;;;;;6.75;1.90;;;;;;;3.20;100.00;101562.69;5052180;28;20049;-86
2022/04/01 00:22:01;;;;;;;4.80;1.67;;;;;;;3.42;100.00;101596.50;5056614;28;20048;-86
2022/04/01 00:24:28;;;;;;;3.45;1.40;;;;;;;3.41;100.00;101602.53;5070847;28;20397;-86
2022/04/01 00:26:55;;;;;;;6.95;1.80;;;;;;;3.12;100.00;101573.91;5067379;28;20056;-86
2022/04/01 00:29:22;;;;;;;4.97;1.58;;;;;;;3.14;100.00;101565.28;5071829;28;20070;-86
2022/04/01 00:31:58;;;;;;;6.05;1.75;;;;;;;3.63;100.00;101628.53;5089841;28;20679;-87
2022/04/01 00:34:29;;;;;;;4.40;1.30;;;;;;;3.34;100.00;101626.66;5070290;28;20049;-86
2022/04/01 00:36:59;;;;;;;7.43;1.90;;;;;;;3.54;100.00;101614.69;5072411;28;20124;-88
2022/04/01 00:39:29;;;;;;;5.45;1.55;;;;;;;3.39;100.00;101633.59;5083822;28;20064;-86
2022/04/01 00:42:00;;;;;;;4.68;2.38;;;;;;;3.29;100.00;101634.38;5071394;28;20676;-88
2022/04/01 00:44:32;;;;;;;4.15;1.40;;;;;;;3.64;100.00;101633.72;5070423;28;20048;-88
2022/04/01 00:47:02;;;;;;;5.45;1.42;;;;;;;3.54;100.00;101635.41;5050318;28;20094;-87
2022/04/01 00:49:31;;;;;;;4.22;1.30;;;;;;;3.64;100.00;101619.94;5072119;28;20070;-88
2022/04/01 00:52:01;;;;;;;3.97;1.42;;;;;;;3.64;100.00;101606.97;5088368;28;20079;-86
2022/04/01 00:54:28;;;;;;;7.68;3.35;;;;;;;3.30;100.00;101607.66;5079472;28;20048;-87
2022/04/01 00:56:55;;;;;;;4.82;1.50;;;;;;;3.21;100.00;101602.41;5090405;28;20066;-87
2022/04/01 00:59:24;;;;;;;9.63;1.65;;;;;;;3.05;100.00;101606.63;5085141;28;20045;-87
2022/04/01 01:01:51;;;;;;;4.15;1.50;;;;;;;3.24;100.00;101620.56;5068544;28;20064;-87
2022/04/01 01:04:19;;;;;;;4.18;1.20;;;;;;;3.10;100.00;101625.63;5066307;28;20087;-87
2022/04/01 01:06:51;;;;;;;3.17;1.40;;;;;;;2.96;100.00;101617.75;5056206;28;21804;-86
2022/04/01 01:09:19;;;;;;;4.70;1.40;;;;;;;3.09;100.00;101631.66;5071953;28;20052;-87
2022/04/01 01:11:49;;;;;;;3.78;1.80;;;;;;;2.88;100.00;101616.81;5093752;28;20131;-88
2022/04/01 01:14:26;;;;;;;3.45;1.55;;;;;;;2.98;100.00;101620.38;5069465;28;20076;-87
2022/04/01 01:16:53;;;;;;;8.00;1.55;;;;;;;3.02;100.00;101620.38;5054025;28;20059;-87
2022/04/01 01:19:20;;;;;;;3.50;1.40;;;;;;;3.01;100.00;101629.00;5054181;28;20231;-88
2022/04/01 01:21:50;;;;;;;8.15;1.65;;;;;;;2.49;100.00;101607.84;5058646;28;20049;-87
2022/04/01 01:24:17;;;;;;;2.65;1.30;;;;;;;2.91;100.00;101631.53;5074585;28;20473;-88
2022/04/01 01:26:52;;;;;;;8.82;1.67;;;;;;;2.58;100.00;101583.81;5074134;28;20053;-88
2022/04/01 01:29:23;;;;;;;4.72;1.75;;;;;;;3.04;100.00;101634.19;5074101;28;20051;-88
2022/04/01 01:31:49;;;;;;;4.95;1.80;;;;;;;2.98;100.00;101638.47;5086765;28;20048;-87
2022/04/01 01:34:17;;;;;;;9.60;1.60;;;;;;;3.01;100.00;101613.50;5080653;28;20064;-89
2022/04/01 01:36:45;;;;;;;7.18;1.58;;;;;;;2.74;100.00;101615.84;5094460;28;20470;-88
2022/04/01 01:39:12;;;;;;;4.88;1.60;;;;;;;2.93;100.00;101620.31;5094655;28;20058;-88
2022/04/01 01:41:38;;;;;;;4.63;1.60;;;;;;;2.95;100.00;101622.91;5091768;28;20055;-88
2022/04/01 01:44:05;;;;;;;7.60;1.77;;;;;;;2.99;100.00;101615.22;5073702;28;20474;-88
2022/04/01 01:46:32;;;;;;;5.35;1.80;;;;;;;3.19;100.00;101635.19;5070051;28;20049;-88
2022/04/01 01:48:59;;;;;;;5.32;1.85;;;;;;;3.12;100.00;101623.06;5053200;28;20048;-87
2022/04/01 01:56:58;;;;;;;4.88;1.58;;;;;;;3.05;100.00;101609.19;5074033;28;20054;-87
2022/04/01 01:59:26;;;;;;;5.47;1.42;;;;;;;3.14;100.00;101627.38;5074423;28;20131;-87
2022/04/01 02:01:53;;;;;;;4.40;1.63;;;;;;;2.70;100.00;101616.69;5079718;28;20043;-87
2022/04/01 02:04:22;;;;;;;3.17;1.33;;;;;;;3.19;100.00;101627.44;5063874;28;20406;-88
2022/04/01 02:06:49;;;;;;;3.40;1.30;;;;;;;3.19;100.00;101607.56;5054123;28;20049;-88
2022/04/01 02:09:17;;;;;;;5.35;1.77;;;;;;;2.97;100.00;101616.88;5053728;28;20053;-87
2022/04/01 02:11:44;;;;;;;5.72;1.77;;;;;;;3.06;100.00;101626.44;5056058;28;20056;-87
2022/04/01 02:14:11;;;;;;;3.50;1.40;;;;;;;2.87;100.00;101619.38;5072146;28;20048;-90
2022/04/01 02:16:39;;;;;;;4.47;1.60;;;;;;;2.86;100.00;101613.34;5073864;28;20052;-88
2022/04/01 02:19:06;;;;;;;5.25;1.50;;;;;;;2.61;100.00;101574.34;5069402;28;20403;-88
2022/04/01 02:21:32;;;;;;;5.88;2.08;;;;;;;2.50;100.00;101577.69;5052746;28;20436;-88
2022/04/01 02:24:00;;;;;;;4.50;1.88;;;;;;;2.83;100.00;101584.88;5081878;28;20443;-87
2022/04/01 02:26:27;;;;;;;4.75;1.50;;;;;;;3.20;100.00;101611.88;5092900;28;20056;-87
2022/04/01 02:28:59;;;;;;;5.70;1.60;;;;;;;3.04;100.00;101605.72;5092803;28;20044;-88
2022/04/01 02:31:25;;;;;;;5.45;1.67;;;;;;;2.89;100.00;101610.81;5092822;28;20079;-87
2022/04/01 02:33:52;;;;;;;5.32;1.50;;;;;;;3.06;100.00;101618.69;5073062;28;20076;-87
2022/04/01 02:36:19;;;;;;;4.85;1.45;;;;;;;3.17;100.00;101611.00;5081655;28;20066;-87
2022/04/01 02:38:46;;;;;;;7.15;1.77;;;;;;;2.73;100.00;101608.94;5056626;28;20083;-87
2022/04/01 02:41:13;;;;;;;2.83;1.40;;;;;;;3.07;100.00;101609.22;5052522;28;20398;-87
2022/04/01 02:43:39;;;;;;;3.40;1.40;;;;;;;2.71;100.00;101583.06;5064106;28;20045;-88
2022/04/01 02:46:10;;;;;;;4.75;1.42;;;;;;;3.12;100.00;101600.63;5057293;28;20049;-87
2022/04/01 02:48:37;;;;;;;4.90;1.65;;;;;;;2.96;100.00;101627.25;5051514;28;20131;-87
2022/04/01 02:51:04;;;;;;;6.07;1.58;;;;;;;2.69;100.00;101602.84;5069516;28;20554;-88
2022/04/01 02:53:31;;;;;;;3.28;1.30;;;;;;;2.95;100.00;101622.91;5069872;28;20044;-87
2022/04/01 02:55:57;;;;;;;5.05;1.63;;;;;;;3.13;100.00;101610.09;5072094;28;20058;-87
2022/04/01 02:58:24;;;;;;;8.07;2.08;;;;;;;2.96;100.00;101599.66;5073485;28;20044;-87
2022/04/01 03:00:51;;;;;;;4.55;1.58;;;;;;;2.80;100.00;101611.59;5071778;28;20049;-88
2022/04/01 03:03:18;;;;;;;3.47;1.30;;;;;;;3.16;100.00;101609.28;5070927;28;20090;-88
2022/04/01 03:05:44;;;;;;;6.18;2.65;;;;;;;2.96;100.00;101601.38;5072081;28;20064;-87
2022/04/01 03:08:11;;;;;;;3.70;1.40;;;;;;;2.77;100.00;101623.63;5072726;28;20045;-87
2022/04/01 03:10:40;;;;;;;3.67;1.30;;;;;;;3.08;100.00;101616.09;5071486;28;20102;-88
2022/04/01 03:13:07;;;;;;;9.23;1.85;;;;;;;3.25;100.00;101618.84;5071978;28;20813;-87
2022/04/01 03:15:34;;;;;;;5.95;1.52;;;;;;;3.17;100.00;101624.81;5056935;28;20045;-88
2022/04/01 03:18:01;;;;;;;2.65;1.27;;;;;;;3.03;100.00;101621.28;5052333;28;20079;-88
2022/04/01 03:20:29;;;;;;;10.15;1.70;;;;;;;3.02;100.00;101624.69;5059759;28;20055;-89
2022/04/01 03:22:57;;;;;;;3.97;1.50;;;;;;;3.14;100.00;101642.03;5061876;28;20044;-89
2022/04/01 03:25:24;;;;;;;2.90;1.30;;;;;;;3.26;100.00;101643.84;5080025;28;20060;-89
2022/04/01 03:27:51;;;;;;;8.52;1.67;;;;;;;3.04;100.00;101626.44;5076340;28;20127;-89
2022/04/01 03:30:18;;;;;;;6.25;1.70;;;;;;;2.93;100.00;101622.03;5073033;28;20139;-89
2022/04/01 03:32:48;;;;;;;4.55;1.23;;;;;;;3.23;100.00;101617.09;5070424;28;20123;-88
2022/04/01 03:35:16;;;;;;;4.07;1.50;;;;;;;3.12;100.00;101625.66;5072217;28;20434;-88
2022/04/01 03:37:49;;;;;;;8.93;1.70;;;;;;;3.15;100.00;101626.53;5071403;28;20402;-87
2022/04/01 03:40:17;;;;;;;8.57;1.85;;;;;;;2.71;100.00;101595.13;5072806;28;20049;-87
2022/04/01 03:42:46;;;;;;;3.92;2.05;;;;;;;2.95;100.00;101621.19;5071527;28;20045;-87
2022/04/01 03:45:14;;;;;;;5.35;1.90;;;;;;;3.12;100.00;101626.50;5070545;28;20049;-86
2022/04/01 03:47:41;;;;;;;4.68;1.60;;;;;;;3.03;100.00;101634.22;5067734;28;20049;-87
2022/04/01 03:50:13;;;;;;;4.53;1.50;;;;;;;3.08;100.00;101634.22;5065400;28;20052;-87
2022/04/01 03:52:45;;;;;;;5.03;1.45;;;;;;;3.12;100.00;101642.03;5071812;28;20048;-87
2022/04/01 03:55:13;;;;;;;3.03;1.45;;;;;;;3.10;100.00;101617.88;5067753;28;20045;-87
2022/04/01 03:57:41;;;;;;;3.50;1.38;;;;;;;3.00;100.00;101616.91;5069457;28;20041;-87
2022/04/01 04:00:14;;;;;;;3.53;1.40;;;;;;;2.83;100.00;101613.31;5071219;28;20048;-83
2022/04/01 04:02:43;;;;;;;4.88;1.40;;;;;;;3.07;100.00;101616.97;5062856;28;20059;-85
2022/04/01 04:05:11;;;;;;;4.95;1.30;;;;;;;2.96;100.00;101603.97;5064507;28;20099;-88
2022/04/01 04:07:40;;;;;;;3.05;1.48;;;;;;;2.95;100.00;101622.91;5051065;28;20068;-87
2022/04/01 04:10:07;;;;;;;5.63;1.50;;;;;;;2.87;100.00;101630.63;5050778;28;20052;-87
2022/04/01 04:12:35;;;;;;;4.00;1.65;;;;;;;2.88;100.00;101632.34;5053814;28;20056;-87
2022/04/01 04:15:03;;;;;;;3.13;1.30;;;;;;;2.78;100.00;101634.00;5054674;28;20410;-87
2022/04/01 04:17:44;;;;;;;4.60;1.38;;;;;;;2.87;100.00;101640.97;5064543;28;20133;-88
2022/04/01 04:20:33;;;;;;;3.30;1.42;;;;;;;2.90;100.00;101653.06;5071373;28;20070;-88
2022/04/01 04:23:00;;;;;;;6.05;1.50;;;;;;;3.04;100.00;101643.69;5069527;28;20158;-88
2022/04/01 04:25:34;;;;;;;3.33;1.40;;;;;;;2.78;100.00;101651.22;5071577;28;20049;-85
2022/04/01 04:28:06;;;;;;;3.30;1.45;;;;;;;2.67;100.00;101614.91;5071884;28;20387;-85
2022/04/01 04:30:49;;;;;;;3.00;1.30;;;;;;;2.77;100.00;101660.69;5071492;28;20131;-84
2022/04/01 04:33:17;;;;;;;5.90;1.50;;;;;;;2.59;100.00;101637.25;5073092;28;20689;-85
2022/04/01 04:35:48;;;;;;;4.22;1.45;;;;;;;2.95;100.00;101652.22;5073901;28;20056;-85
2022/04/01 04:38:20;;;;;;;4.00;1.23;;;;;;;2.92;100.00;101665.16;5072637;28;20055;-87
2022/04/01 04:40:49;;;;;;;3.92;1.30;;;;;;;2.95;100.00;101654.81;5070090;28;20048;-87
2022/04/01 04:43:18;;;;;;;2.75;1.30;;;;;;;3.02;100.00;101650.56;5061023;28;20048;-88
2022/04/01 04:45:52;;;;;;;4.40;1.20;;;;;;;3.06;100.00;101661.81;5070443;28;20091;-87
2022/04/01 04:48:19;;;;;;;;;;;;;;;3.34;100.00;101671.50;5070894;28;20044;-87
2022/04/01 04:50:48;;;;;;;2.95;1.20;;;;;;;3.13;100.00;101674.81;5054070;28;20015;-86
2022/04/01 04:53:18;;;;;;;3.58;1.23;;;;;;;2.57;100.00;101621.72;5073353;28;20285;-86
2022/04/01 04:55:47;;;;;;;3.67;1.42;;;;;;;2.85;100.00;101650.41;5081172;28;20061;-87
2022/04/01 04:58:17;;;;;;;2.95;1.10;;;;;;;3.00;100.00;101660.91;5065715;28;20049;-85
2022/04/01 05:00:49;;;;;;;1.95;1.10;;;;;;;3.03;100.00;101658.34;5061535;28;20699;-85
2022/04/01 05:03:31;;;;;;;2.17;1.20;;;;;;;3.16;100.00;101685.19;5082010;28;20550;-88
2022/04/01 05:05:59;;;;;;;1.98;1.20;;;;;;;3.00;100.00;101671.25;5067841;28;20079;-86
2022/04/01 05:08:48;;;;;;;1.40;1.00;;;;;;;3.08;100.00;101681.69;5073860;28;20405;-85
2022/04/01 05:11:18;;;;;;;2.33;1.20;;;;;;;2.78;100.00;101677.97;5074418;28;20064;-85
2022/04/01 05:14:07;;;;;;;1.88;1.10;;;;;;;2.98;100.00;101682.47;5071413;28;20050;-85
2022/04/01 05:16:43;;;;;;;3.00;1.05;;;;;;;2.99;100.00;101689.34;5055122;28;20045;-83
2022/04/01 05:19:12;;;;;;;2.00;1.00;;;;;;;3.01;100.00;101693.69;5073522;28;20048;-83
2022/04/01 05:22:01;;;;;;;2.92;1.20;;;;;;;2.93;100.00;101689.31;5072989;28;20075;-83
2022/04/01 05:24:47;;;;;;;2.05;1.10;;;;;;;3.13;100.00;101687.75;5063131;28;20410;-84
2022/04/01 05:27:17;;;;;;;3.33;1.10;;;;;;;3.09;100.00;101691.16;5063756;28;20048;-84
2022/04/01 05:30:04;;;;;;;2.10;1.02;;;;;;;2.53;100.00;101660.44;5073635;28;20067;-84
2022/04/01 05:32:37;;;;;;;2.47;1.20;;;;;;;2.69;100.00;101667.50;5067051;28;20051;-84
2022/04/01 05:35:06;;;;;;;3.83;1.15;;;;;;;2.90;100.00;101697.88;5062801;28;20140;-84
2022/04/01 05:37:34;;;;;;;3.72;1.30;;;;;;;2.82;100.00;101692.66;5065182;28;20053;-85
2022/04/01 05:40:05;;;;;;;3.00;1.35;;;;;;;2.74;100.00;101680.50;5067328;28;20051;-84
2022/04/01 05:42:33;;;;;;;2.63;1.23;;;;;;;2.72;100.00;101657.19;5062305;28;20045;-84
2022/04/01 05:45:01;;;;;;;4.65;1.30;;;;;;;2.87;100.00;101704.75;5063473;28;20052;-84
2022/04/01 05:47:30;;;;;;;4.10;2.22;;;;;;;2.77;100.00;101698.63;5065970;28;20048;-83
2022/04/01 05:49:59;;;;;;;2.22;1.20;;;;;;;2.70;100.00;101695.13;5067913;28;20504;-84
2022/04/01 05:52:27;;;;;;;3.70;1.40;;;;;;;2.58;100.00;101664.81;5064317;28;20056;-84
2022/04/01 05:54:56;;;;;;;2.78;1.20;;;;;;;2.54;100.00;101686.31;5063410;28;20834;-84
2022/04/01 05:57:22;;;;;;;3.13;1.40;;;;;;;2.71;100.00;101704.63;5065282;28;20041;-84
2022/04/01 05:59:49;;;;;;;4.68;1.35;;;;;;;2.71;100.00;101659.75;5066701;28;20051;-83
2022/04/01 06:02:38;;;;;;;4.38;1.70;;;;;;;3.07;100.00;101708.41;5064244;28;20685;-85
2022/04/01 06:05:20;;;;;;;2.50;1.40;;;;;;;3.01;100.00;101700.56;5069347;28;20049;-84
2022/04/01 06:07:54;;;;;;;5.07;1.42;;;;;;;2.70;100.00;101697.69;5071605;28;20056;-85
2022/04/01 06:10:36;;;;;;;5.68;1.50;;;;;;;2.75;100.00;101701.19;5062102;28;20048;-84
2022/04/01 06:13:17;;;;;;;3.85;1.50;;;;;;;2.77;100.00;101702.09;5064926;28;20507;-85
2022/04/01 06:16:16;;;;;;;3.70;1.40;;;;;;;2.96;100.00;101686.75;5061579;28;20534;-84
2022/04/01 06:18:51;;;;;;;9.75;1.50;;;;;;;3.03;100.00;101696.31;5066400;28;20124;-85
2022/04/01 06:21:24;;;;;;;4.85;1.50;;;;;;;2.92;100.00;101696.22;5064156;28;20131;-85
2022/04/01 06:24:17;;;;;;;4.55;1.35;;;;;;;3.20;100.00;101697.28;5068640;28;20509;-86
2022/04/01 06:26:49;;;;;;;8.17;1.70;;;;;;;3.13;100.00;101695.50;5076584;28;20052;-85
2022/04/01 06:29:33;;;;;;;7.13;1.63;;;;;;;3.26;100.00;101688.72;5064361;28;20056;-84
2022/04/01 06:32:05;;;;;;;4.63;1.77;;;;;;;3.06;100.00;101703.22;5066965;28;20045;-84
2022/04/01 06:35:09;;;;;;;3.28;1.40;;;;;;;2.72;100.00;101667.53;5063609;28;20056;-85
2022/04/01 06:37:49;;;;;;;2.90;1.48;;;;;;;2.78;100.00;101636.59;5068738;28;20052;-86
2022/04/01 06:40:21;;;;;;;3.75;1.50;;;;;;;2.88;100.00;101663.38;5069468;28;20048;-86
2022/04/01 06:42:52;;;;;;;5.45;1.40;;;;;;;2.94;100.00;101686.75;5060990;28;20063;-87
2022/04/01 06:45:19;;;;;;;7.32;1.50;;;;;;;3.13;100.00;101687.75;5070732;28;20067;-87
2022/04/01 06:47:47;;;;;;;3.17;1.40;;;;;;;2.96;100.00;101694.50;5069127;28;20448;-88
2022/04/01 06:50:16;;;;;;;3.95;1.50;;;;;;;3.31;100.00;101710.34;5079351;28;20044;-87
2022/04/01 06:52:44;;;;;;;2.88;1.40;;;;;;;3.14;100.00;101694.66;5082533;28;20509;-85
2022/04/01 06:55:12;;;;;;;7.63;1.27;;;;;;;3.35;100.00;101713.81;5073859;28;20056;-85
2022/04/01 06:57:40;;;;;;;3.05;1.55;;;;;;;3.28;100.00;101697.38;5071244;28;20059;-86
2022/04/01 07:00:11;;;;;;;3.28;1.30;;;;;;;3.47;100.00;101711.31;5071011;28;20055;-85
2022/04/01 07:02:41;;;;;;;3.97;1.63;;;;;;;3.60;100.00;101710.53;5066604;28;20044;-84
2022/04/01 07:05:09;;;;;;;3.97;1.60;;;;;;;3.34;100.00;101704.31;5062657;28;20056;-86
2022/04/01 07:07:37;;;;;;;4.53;1.73;;;;;;;3.87;100.00;101721.94;5071953;28;20486;-85
2022/04/01 07:10:04;;;;;;;4.57;1.60;;;;;;;4.59;100.00;101703.25;5052917;28;20045;-86
2022/04/01 07:12:32;;;;;;;3.22;1.55;;;;;;;4.84;100.00;101670.41;5058040;28;20045;-86
2022/04/01 07:14:59;;;;;;;6.38;2.47;;;;;;;5.45;100.00;101718.03;5071495;28;20413;-86
2022/04/01 07:17:26;;;;;;;6.72;2.05;;;;;;;5.28;100.00;101703.31;5072477;28;20242;-85
2022/04/01 07:19:53;;;;;;;4.25;1.70;;;;;;;5.61;100.00;101693.78;5070833;28;20508;-85
2022/04/01 07:22:20;;;;;;;8.77;1.60;;;;;;;5.68;100.00;101700.69;5071199;28;20045;-85
2022/04/01 07:24:47;;;;;;;4.53;1.58;;;;;;;4.72;100.00;101660.88;5071005;28;20147;-86
2022/04/01 07:27:14;;;;;;;4.28;1.48;;;;;;;4.67;100.00;101704.09;5072038;28;20482;-86
2022/04/01 07:29:41;;;;;;;3.88;1.80;;;;;;;4.55;100.00;101730.91;5071273;28;20048;-85
2022/04/01 07:34:53;;;;;;;4.18;1.60;;;;;;;4.83;100.00;101735.28;5072305;28;20059;-86
2022/04/01 07:37:22;;;;;;;4.35;1.50;;;;;;;4.38;100.00;101722.19;5071502;28;20505;-86
2022/04/01 07:40:10;;;;;;;4.90;1.55;;;;;;;4.50;100.00;101739.53;5079607;28;20044;-87
2022/04/01 07:42:38;;;;;;;3.38;1.48;;;;;;;4.54;100.00;101742.13;5067374;28;20139;-94
2022/04/01 07:45:07;;;;;;;5.13;1.70;;;;;;;4.66;100.00;101719.69;5071680;28;20131;-86
2022/04/01 07:47:35;;;;;;;4.35;1.52;;;;;;;4.46;100.00;101737.75;5070261;28;20059;-87
2022/04/01 07:50:03;;;;;;;5.97;1.83;;;;;;;3.88;100.00;101723.69;5069488;28;20659;-86
2022/04/01 07:52:34;;;;;;;5.45;1.67;;;;;;;4.37;100.00;101730.81;5065337;28;20063;-85
2022/04/01 07:55:01;;;;;;;5.38;1.42;;;;;;;4.52;100.00;101727.44;5070803;28;20058;-85
2022/04/01 07:57:28;;;;;;;4.00;1.60;;;;;;;5.15;100.00;101740.53;5069867;28;20084;-85
2022/04/01 07:59:54;;;;;;;4.93;1.75;;;;;;;4.81;100.00;101735.28;5069938;28;20051;-85
2022/04/01 08:02:22;;;;;;;5.43;1.70;;;;;;;4.74;100.00;101743.91;5069045;28;20054;-85
2022/04/01 08:04:48;;;;;;;3.53;1.42;;;;;;;4.91;100.00;101749.16;5070006;28;20045;-85
2022/04/01 08:07:16;;;;;;;3.75;1.40;;;;;;;5.14;100.00;101744.84;5070946;28;20509;-86
2022/04/01 08:09:43;;;;;;;8.75;2.00;;;;;;;5.02;100.00;101742.25;5069890;28;20048;-83
2022/04/01 08:12:10;;;;;;;5.72;1.90;;;;;;;4.84;100.00;101718.88;5070305;28;20049;-85
2022/04/01 08:14:37;;;;;;;4.53;1.80;;;;;;;5.62;100.00;101742.25;5071722;28;20391;-86
2022/04/01 08:17:05;;;;;;;7.07;2.58;;;;;;;5.57;100.00;101724.94;5071149;28;20088;-85
2022/04/01 08:19:32;;;;;;;6.50;1.73;;;;;;;6.33;100.00;101713.50;5069641;28;20087;-86
2022/04/01 08:21:59;;;;;;;4.70;1.80;;;;;;;6.76;100.00;101730.63;5070338;28;20070;-85
2022/04/01 08:24:26;;;;;;;5.93;1.90;;;;;;;6.29;100.00;101735.22;5069230;28;20052;-85
2022/04/01 08:26:53;;;;;;;3.38;1.30;;;;;;;6.63;100.00;101746.31;5071178;28;20776;-85
2022/04/01 08:29:20;;;;;;;8.82;1.73;;;;;;;6.86;100.00;101734.06;5071213;28;20048;-85
2022/04/01 08:31:47;;;;;;;3.30;1.50;;;;;;;6.89;100.00;101736.63;5070504;28;20401;-84
2022/04/01 08:34:13;;;;;;;8.48;1.70;;;;;;;6.47;100.00;101742.94;5069754;28;20049;-85
2022/04/01 08:36:40;;;;;;;4.40;1.77;;;;;;;6.46;100.00;101732.53;5054584;28;20049;-86
2022/04/01 08:39:07;;;;;;;5.85;1.83;;;;;;;6.55;100.00;101731.63;5064022;28;20044;-85
2022/04/01 08:41:34;;;;;;;4.63;1.70;;;;;;;6.54;100.00;101722.94;5070495;28;20059;-86
2022/04/01 08:44:02;;;;;;;4.18;1.80;;;;;;;6.49;100.00;101729.06;5070135;28;20045;-85
2022/04/01 08:46:30;;;;;;;4.72;1.70;;;;;;;6.45;100.00;101707.41;5070251;28;20052;-85
2022/04/01 08:49:02;;;;;;;4.85;1.60;;;;;;;6.26;100.00;101694.47;5070278;28;20045;-85
2022/04/01 08:51:29;;;;;;;6.18;1.73;;;;;;;6.33;100.00;101726.50;5068275;28;20052;-85
2022/04/01 08:53:56;;;;;;;3.30;1.50;;;;;;;7.12;100.00;101702.63;5064306;28;20065;-85
2022/04/01 08:56:23;;;;;;;7.32;2.13;;;;;;;7.12;100.00;101715.63;5049931;28;20057;-85
2022/04/01 08:58:50;;;;;;;3.70;1.33;;;;;;;6.95;100.00;101721.84;5061271;28;20049;-85
2022/04/01 09:01:17;;;;;;;4.53;1.50;;;;;;;6.95;100.00;101684.53;5070906;28;20060;-85
2022/04/01 09:03:44;;;;;;;4.38;1.50;;;;;;;7.52;100.00;101721.38;5068858;28;20051;-85
2022/04/01 09:06:12;;;;;;;4.93;1.73;;;;;;;7.71;100.00;101727.28;5069433;28;20094;-85
2022/04/01 09:08:40;;;;;;;5.70;1.45;;;;;;;7.73;100.00;101716.84;5069419;28;20497;-88
2022/04/01 09:11:18;;;;;;;8.40;1.60;;;;;;;7.73;100.00;101733.34;5060718;28;20051;-86
2022/04/01 09:13:48;;;;;;;5.10;1.55;;;;;;;7.54;100.00;101735.28;5069827;28;20055;-86
2022/04/01 09:16:31;;;;;;;3.60;1.35;;;;;;;7.07;100.00;101727.84;5067282;28;20535;-91
2022/04/01 09:19:03;;;;;;;4.78;1.60;;;;;;;6.96;100.00;101735.75;5066253;28;20517;-86
2022/04/01 09:21:32;;;;;;;7.43;1.70;;;;;;;6.96;100.00;101718.38;5069337;28;20055;-86
2022/04/01 09:24:00;;;;;;;15.98;2.00;;;;;;;6.90;100.00;101730.56;5068562;28;20052;-86
2022/04/01 09:26:37;;;;;;;5.10;1.63;;;;;;;7.17;100.00;101735.59;5069518;28;20814;-87
2022/04/01 09:29:06;;;;;;;7.00;1.60;;;;;;;7.68;100.00;101719.50;5068973;28;20083;-87
2022/04/01 09:31:36;;;;;;;8.27;1.83;;;;;;;7.58;100.00;101746.56;5069245;28;20080;-86
2022/04/01 09:34:13;;;;;;;7.72;1.88;;;;;;;6.94;100.00;101740.06;5072290;28;20056;-87
2022/04/01 09:36:43;;;;;;;9.80;2.08;;;;;;;6.80;100.00;101745.38;5079574;28;20056;-93
2022/04/01 09:39:23;;;;;;;3.20;1.30;;;;;;;6.78;100.00;101710.66;5074868;28;20055;-92
2022/04/01 09:41:53;;;;;;;9.00;1.77;;;;;;;6.70;100.00;101736.75;5072555;28;20059;-87
2022/04/01 09:44:25;;;;;;;9.77;2.00;;;;;;;7.82;100.00;101745.44;5073073;28;20474;-84
2022/04/01 09:46:56;;;;;;;8.45;1.70;;;;;;;7.87;100.00;101733.22;5068964;28;20052;-84
2022/04/01 09:49:30;;;;;;;5.70;1.50;;;;;;;8.64;100.00;101726.22;5073868;28;20045;-85
2022/04/01 09:52:03;;;;;;;11.23;2.13;;;;;;;7.89;100.00;101743.63;5067309;28;20126;-84
2022/04/01 09:54:29;;;;;;;6.85;1.67;;;;;;;8.27;100.00;101724.94;5072433;28;20048;-85
2022/04/01 09:56:58;;;;;;;5.50;1.67;;;;;;;8.14;100.00;101710.31;5054593;28;20049;-83
2022/04/01 09:59:33;;;;;;;4.18;1.40;;;;;;;8.67;100.00;101734.88;5054179;28;20128;-84
2022/04/01 10:02:00;;;;;;;6.43;2.10;;;;;;;8.66;100.00;101734.94;5072984;28;20141;-84
2022/04/01 10:04:27;;;;;;;12.77;1.98;;;;;;;8.01;100.00;101734.81;5071979;28;20048;-84
2022/04/01 10:06:55;;;;;;;5.95;1.50;;;;;;;8.09;100.00;101723.44;5073168;28;20152;-84
2022/04/01 10:09:23;;;;;;;5.30;1.50;;;;;;;8.36;100.00;101718.75;5072283;28;20047;-84
2022/04/01 10:12:13;;;;;;;7.65;2.20;;;;;;;8.06;100.00;101744.31;5070273;28;20044;-84
2022/04/01 10:14:40;;;;;;;5.93;2.45;;;;;;;8.25;100.00;101734.53;5065241;28;20159;-84
2022/04/01 10:17:25;;;;;;;7.80;2.03;;;;;;;8.47;100.00;101731.69;5053865;28;20053;-84
2022/04/01 10:19:53;;;;;;;9.40;1.88;;;;;;;7.98;100.00;101736.59;5061138;28;20040;-84
2022/04/01 10:22:20;;;;;;;13.10;3.10;;;;;;;8.25;100.00;101731.06;5072199;28;20049;-84
2022/04/01 10:24:59;;;;;;;7.60;1.80;;;;;;;8.24;100.00;101688.44;5072502;28;20052;-84
2022/04/01 10:27:49;;;;;;;8.45;1.60;;;;;;;9.18;100.00;101723.69;5072743;28;20048;-84
2022/04/01 10:30:19;;;;;;;5.65;1.73;;;;;;;8.66;100.00;101695.78;5073005;28;20055;-84
2022/04/01 10:32:49;;;;;;;10.63;1.80;;;;;;;8.34;100.00;101720.53;5071291;28;20040;-82
2022/04/01 10:35:26;;;;;;;7.85;1.70;;;;;;;8.46;100.00;101737.78;5053044;28;20080;-82
2022/04/01 10:38:15;;;;;;;7.20;1.77;;;;;;;9.03;100.00;101737.00;5060404;28;20490;-81
2022/04/01 10:40:45;;;;;;;11.30;2.00;;;;;;;8.22;100.00;101702.41;5069211;28;20468;-83
2022/04/01 10:43:18;;;;;;;5.57;1.63;;;;;;;8.46;100.00;101733.41;5069979;28;20089;-84
2022/04/01 10:46:03;;;;;;;;;;;;;;;7.68;100.00;101729.91;5088676;28;20059;-83
2022/04/01 10:51:39;;;;;;;9.60;1.80;;;;;;;8.96;100.00;101723.19;5070084;28;20661;-84
2022/04/01 10:54:12;;;;;;;7.10;2.10;;;;;;;9.18;96.23;101715.84;5069416;28;20048;-84
2022/04/01 10:57:00;;;;;;;10.48;1.75;;;;;;;8.80;91.83;101706.88;5066794;28;20052;-84
2022/04/01 10:59:37;;;;;;;8.30;1.50;;;;;;;8.88;92.11;101723.28;5071580;28;20048;-84
2022/04/01 11:02:06;;;;;;;8.75;1.70;;;;;;;9.19;94.76;101704.53;5069520;28;20608;-84
2022/04/01 11:04:36;;;;;;;4.93;1.40;;;;;;;9.39;96.36;101703.34;5072306;28;20127;-84
2022/04/01 11:07:06;;;;;;;4.57;1.30;;;;;;;10.17;91.38;101716.69;5059403;28;20056;-84
2022/04/01 11:09:48;;;;;;;5.20;1.30;;;;;;;10.41;87.41;101716.22;5070663;28;20059;-84
2022/04/01 11:12:25;;;;;;;8.65;1.40;;;;;;;10.21;84.26;101715.72;5069811;28;20050;-84
2022/04/01 11:15:07;;;;;;;5.88;1.38;;;;;;;10.30;85.16;101714.69;5060374;28;20053;-84
2022/04/01 11:17:34;;;;;;;9.38;1.88;;;;;;;9.82;84.76;101716.47;5064702;28;20140;-85
2022/04/01 11:20:07;;;;;;;8.25;2.63;;;;;;;9.51;85.61;101710.97;5070907;28;20486;-85
2022/04/01 11:22:59;;;;;;;8.32;1.70;;;;;;;9.82;88.55;101719.09;5071074;28;20041;-85
2022/04/01 11:25:31;;;;;;;7.43;2.08;;;;;;;9.83;89.78;101712.13;5070245;28;20054;-85
2022/04/01 11:28:05;;;;;;;9.27;1.55;;;;;;;10.36;84.52;101717.22;5062755;28;20053;-86
2022/04/01 11:30:39;;;;;;;3.33;1.13;;;;;;;10.27;78.85;101707.78;5071446;28;20043;-85
2022/04/01 11:33:12;;;;;;;6.32;1.50;;;;;;;10.30;79.54;101712.06;5069666;28;20402;-85
2022/04/01 11:35:44;;;;;;;4.57;1.33;;;;;;;9.87;74.19;101693.72;5071660;28;20048;-86
2022/04/01 11:38:16;;;;;;;6.60;1.50;;;;;;;9.65;75.97;101700.22;5069447;28;20056;-86
2022/04/01 11:40:46;;;;;;;5.22;1.38;;;;;;;9.60;74.79;101689.88;5065951;28;20045;-86
2022/04/01 11:43:15;;;;;;;8.30;1.42;;;;;;;9.35;72.53;101670.28;5057905;28;20049;-86
2022/04/01 11:45:58;;;;;;;6.05;3.00;;;;;;;9.80;72.05;101705.19;5051690;28;20071;-86
2022/04/01 11:48:31;;;;;;;;;;;;;;;9.91;69.67;101701.50;5052280;28;20053;-86
2022/04/01 11:51:11;;;;;;;14.45;2.10;;;;;;;9.60;72.32;101670.72;5078362;28;19960;-86
2022/04/01 11:53:45;;;;;;;8.50;1.30;;;;;;;10.10;68.53;101679.31;5069318;28;20088;-86
2022/04/01 11:56:13;;;;;;;3.67;1.20;;;;;;;10.88;69.99;101670.66;5061162;28;20048;-86